createdAt,value
2023-04-03T00:00:56.182Z,1.70
2023-04-03T00:03:23.511Z,1.67
2023-04-03T00:05:51.152Z,1.83
2023-04-03T00:08:18.309Z,1.35
2023-04-03T00:10:45.625Z,1.48
2023-04-03T00:13:13.005Z,1.52
2023-04-03T00:15:40.592Z,1.33
2023-04-03T00:18:08.272Z,1.50
2023-04-03T00:20:35.684Z,1.23
2023-04-03T00:23:03.554Z,1.40
2023-04-03T00:25:30.889Z,1.50
2023-04-03T00:27:58.085Z,1.65
2023-04-03T00:30:25.550Z,1.73
2023-04-03T00:32:53.791Z,1.60
2023-04-03T00:35:22.407Z,1.33
2023-04-03T00:37:50.377Z,1.50
2023-04-03T00:40:17.796Z,1.40
2023-04-03T00:42:45.781Z,1.38
2023-04-03T00:45:12.970Z,1.60
2023-04-03T00:47:41.217Z,1.40
2023-04-03T00:50:08.855Z,1.70
2023-04-03T00:52:36.228Z,1.65
2023-04-03T00:55:05.922Z,1.45
2023-04-03T00:57:33.514Z,2.15
2023-04-03T01:00:03.859Z,1.65
2023-04-03T01:02:31.061Z,1.48
2023-04-03T01:04:58.192Z,1.70
2023-04-03T01:07:27.620Z,1.58
2023-04-03T01:09:57.779Z,1.77
2023-04-03T01:12:27.112Z,1.40
2023-04-03T01:14:58.808Z,1.23
2023-04-03T01:17:39.751Z,1.45
2023-04-03T01:20:25.897Z,1.58
2023-04-03T01:23:06.562Z,1.70
2023-04-03T01:25:34.035Z,1.92
2023-04-03T01:28:01.691Z,1.60
2023-04-03T01:30:33.629Z,1.60
2023-04-03T01:33:00.853Z,1.45
2023-04-03T01:35:28.036Z,1.88
2023-04-03T01:37:55.372Z,1.52
2023-04-03T01:40:22.589Z,1.38
2023-04-03T01:42:49.716Z,1.98
2023-04-03T01:45:16.921Z,1.73
2023-04-03T01:47:44.083Z,2.00
2023-04-03T01:50:11.407Z,2.28
2023-04-03T01:52:38.538Z,1.73
2023-04-03T01:55:05.933Z,2.70
2023-04-03T01:57:33.286Z,1.88
2023-04-03T02:00:00.617Z,1.90
2023-04-03T02:02:28.730Z,2.03
2023-04-03T02:04:55.860Z,1.50
2023-04-03T02:07:23.362Z,2.00
2023-04-03T02:09:50.667Z,2.08
2023-04-03T02:12:18.181Z,2.03
2023-04-03T02:14:45.462Z,1.92
2023-04-03T02:17:12.543Z,1.90
2023-04-03T02:19:39.708Z,1.90
2023-04-03T02:22:07.389Z,2.28
2023-04-03T02:24:34.598Z,2.17
2023-04-03T02:27:01.834Z,2.08
2023-04-03T02:29:28.968Z,2.50
2023-04-03T02:31:56.196Z,2.05
2023-04-03T02:34:23.508Z,2.00
2023-04-03T02:36:50.762Z,2.20
2023-04-03T02:39:17.895Z,2.17
2023-04-03T02:41:45.097Z,2.45
2023-04-03T02:44:12.648Z,2.67
2023-04-03T02:46:39.924Z,2.20
2023-04-03T02:49:07.380Z,2.65
2023-04-03T02:51:34.677Z,2.95
2023-04-03T02:54:01.999Z,2.65
2023-04-03T02:56:29.127Z,2.60
2023-04-03T02:58:56.304Z,2.53
2023-04-03T03:01:23.442Z,2.53
2023-04-03T03:03:50.702Z,2.83
2023-04-03T03:06:19.143Z,2.58
2023-04-03T03:08:46.405Z,2.40
2023-04-03T03:11:13.533Z,2.72
2023-04-03T03:13:40.851Z,3.15
2023-04-03T03:16:08.155Z,2.83
2023-04-03T03:18:36.353Z,2.78
2023-04-03T03:21:03.914Z,2.50
2023-04-03T03:23:33.128Z,2.80
2023-04-03T03:26:01.531Z,2.95
2023-04-03T03:28:28.736Z,2.38
2023-04-03T03:30:55.932Z,2.50
2023-04-03T03:33:23.052Z,2.15
2023-04-03T03:35:50.849Z,2.58
2023-04-03T03:38:18.078Z,2.38
2023-04-03T03:40:45.365Z,2.50
2023-04-03T03:43:12.462Z,2.92
2023-04-03T03:45:39.757Z,3.10
2023-04-03T03:48:07.035Z,2.72
2023-04-03T03:50:34.200Z,3.00
2023-04-03T03:53:01.397Z,3.20
2023-04-03T03:55:28.641Z,2.17
2023-04-03T03:57:55.730Z,2.35
2023-04-03T04:00:23.028Z,4.72
2023-04-03T04:02:50.265Z,3.40
2023-04-03T04:05:17.464Z,2.97
2023-04-03T04:07:44.689Z,6.50
2023-04-03T04:10:12.036Z,4.95
2023-04-03T04:12:39.210Z,3.53
2023-04-03T04:15:06.821Z,4.47
2023-04-03T04:17:35.619Z,10.18
2023-04-03T04:20:03.785Z,7.10
2023-04-03T04:22:31.015Z,4.85
2023-04-03T04:24:58.173Z,5.25
2023-04-03T04:27:25.355Z,5.22
2023-04-03T04:29:52.473Z,3.95
2023-04-03T04:32:19.642Z,6.03
2023-04-03T04:34:46.978Z,3.92
2023-04-03T04:37:14.135Z,3.88
2023-04-03T04:39:41.275Z,4.10
2023-04-03T04:42:14.657Z,3.75
2023-04-03T04:44:43.823Z,3.05
2023-04-03T04:47:11.202Z,3.63
2023-04-03T04:49:38.363Z,2.95
2023-04-03T04:52:06.018Z,3.67
2023-04-03T04:54:33.171Z,4.40
2023-04-03T04:57:00.586Z,3.60
2023-04-03T04:59:27.859Z,4.28
2023-04-03T05:01:55.744Z,4.95
2023-04-03T05:04:23.191Z,4.18
2023-04-03T05:06:50.386Z,3.90
2023-04-03T05:09:17.557Z,3.63
2023-04-03T05:11:44.744Z,4.20
2023-04-03T05:14:11.875Z,3.58
2023-04-03T05:16:39.032Z,4.05
2023-04-03T05:19:06.240Z,3.75
2023-04-03T05:21:33.578Z,4.90
2023-04-03T05:24:03.640Z,4.57
2023-04-03T05:26:31.628Z,4.30
2023-04-03T05:28:58.872Z,4.20
2023-04-03T05:31:26.143Z,4.20
2023-04-03T05:33:53.378Z,4.90
2023-04-03T05:36:20.895Z,4.78
2023-04-03T05:38:48.346Z,5.05
2023-04-03T05:41:16.116Z,4.43
2023-04-03T05:43:43.250Z,4.53
2023-04-03T05:46:12.144Z,7.43
2023-04-03T05:48:39.391Z,4.32
2023-04-03T05:51:08.055Z,4.65
2023-04-03T05:53:38.262Z,5.18
2023-04-03T05:56:05.525Z,4.70
2023-04-03T05:58:32.650Z,4.25
2023-04-03T06:00:59.800Z,5.60
2023-04-03T06:03:27.310Z,4.63
2023-04-03T06:05:54.579Z,3.83
2023-04-03T06:08:21.838Z,4.32
2023-04-03T06:10:49.263Z,4.43
2023-04-03T06:13:16.481Z,4.50
2023-04-03T06:15:43.892Z,4.22
2023-04-03T06:18:11.120Z,4.35
2023-04-03T06:20:38.718Z,4.15
2023-04-03T06:23:08.475Z,3.70
2023-04-03T06:25:35.746Z,3.97
2023-04-03T06:28:02.909Z,3.70
2023-04-03T06:30:30.039Z,3.25
2023-04-03T06:32:57.582Z,3.30
2023-04-03T06:35:24.932Z,2.95
2023-04-03T06:37:52.024Z,3.25
2023-04-03T06:40:22.442Z,2.78
2023-04-03T06:42:49.637Z,2.72
2023-04-03T06:45:16.931Z,2.58
2023-04-03T06:47:44.405Z,2.90
2023-04-03T06:50:12.662Z,3.25
2023-04-03T06:52:41.013Z,2.20
2023-04-03T06:55:09.263Z,2.70
2023-04-03T06:57:36.913Z,3.00
2023-04-03T07:00:05.259Z,2.58
2023-04-03T07:02:32.669Z,2.78
2023-04-03T07:04:59.958Z,2.53
2023-04-03T07:07:27.135Z,2.67
2023-04-03T07:09:54.390Z,2.25
2023-04-03T07:12:21.736Z,2.35
2023-04-03T07:14:49.116Z,2.60
2023-04-03T07:17:16.493Z,2.47
2023-04-03T07:19:43.608Z,2.97
2023-04-03T07:22:12.016Z,3.00
2023-04-03T07:24:39.185Z,3.17
2023-04-03T07:27:06.643Z,2.67
2023-04-03T07:29:33.759Z,2.85
2023-04-03T07:32:01.024Z,3.42
2023-04-03T07:34:28.427Z,2.85
2023-04-03T07:36:55.844Z,3.08
2023-04-03T07:39:23.020Z,2.95
2023-04-03T07:41:50.690Z,3.25
2023-04-03T07:44:17.877Z,2.78
2023-04-03T07:46:45.050Z,2.67
2023-04-03T07:49:12.147Z,2.58
2023-04-03T07:51:39.581Z,2.60
2023-04-03T07:54:07.033Z,2.58
2023-04-03T07:56:34.464Z,2.40
2023-04-03T07:59:01.674Z,2.58
2023-04-03T08:01:29.124Z,2.50
2023-04-03T08:03:56.365Z,2.47
2023-04-03T08:06:33.068Z,2.22
2023-04-03T08:09:10.054Z,2.72
2023-04-03T08:11:37.482Z,2.20
2023-04-03T08:14:04.635Z,2.30
2023-04-03T08:16:31.949Z,2.22
2023-04-03T08:18:59.153Z,2.10
2023-04-03T08:21:27.114Z,1.90
2023-04-03T08:23:54.260Z,2.10
2023-04-03T08:26:22.520Z,1.90
2023-04-03T08:28:50.418Z,2.00
2023-04-03T08:31:19.546Z,1.75
2023-04-03T08:33:47.112Z,1.92
2023-04-03T08:36:19.393Z,1.60
2023-04-03T08:38:46.556Z,1.60
2023-04-03T08:41:13.824Z,1.85
2023-04-03T08:43:50.323Z,1.65
2023-04-03T08:46:19.042Z,1.90
2023-04-03T08:48:46.305Z,1.67
2023-04-03T08:51:18.518Z,1.63
2023-04-03T08:53:57.575Z,1.65
2023-04-03T08:56:26.565Z,1.55
2023-04-03T08:59:01.442Z,1.85
2023-04-03T09:01:39.909Z,1.45
2023-04-03T09:04:14.980Z,1.27
2023-04-03T09:06:42.823Z,1.60
2023-04-03T09:09:16.124Z,2.05
2023-04-03T09:12:02.284Z,1.52
2023-04-03T09:14:36.593Z,1.00
2023-04-03T09:17:13.456Z,1.55
2023-04-03T09:19:50.496Z,1.23
2023-04-03T09:22:23.568Z,1.20
2023-04-03T09:24:59.131Z,1.20
2023-04-03T09:27:26.546Z,1.33
2023-04-03T09:29:55.460Z,1.20
2023-04-03T09:32:28.694Z,0.90
2023-04-03T09:34:59.693Z,5.53
2023-04-03T09:37:38.583Z,1.85
2023-04-03T09:40:07.382Z,1.30
2023-04-03T09:42:34.538Z,1.27
2023-04-03T09:45:02.955Z,1.35
2023-04-03T09:47:34.884Z,1.08
2023-04-03T09:50:14.871Z,1.33
2023-04-03T09:52:43.906Z,1.80
2023-04-03T09:55:22.040Z,12.05
2023-04-03T09:57:52.195Z,2.30
2023-04-03T10:00:25.231Z,1.10
2023-04-03T10:02:53.786Z,2.17
2023-04-03T10:05:38.182Z,1.75
2023-04-03T10:08:14.619Z,1.02
2023-04-03T10:10:43.201Z,0.80
2023-04-03T10:13:20.991Z,1.23
2023-04-03T10:16:02.668Z,0.75
2023-04-03T10:18:30.469Z,1.00
2023-04-03T10:21:01.425Z,1.05
2023-04-03T10:23:44.124Z,0.93
2023-04-03T10:26:25.635Z,1.05
2023-04-03T10:28:52.729Z,1.33
2023-04-03T10:31:33.447Z,1.20
2023-04-03T10:34:03.900Z,0.77
2023-04-03T10:36:47.654Z,0.93
2023-04-03T10:39:20.677Z,0.95
2023-04-03T10:41:47.827Z,0.80
2023-04-03T10:44:18.206Z,0.88
2023-04-03T10:46:48.483Z,0.90
2023-04-03T10:49:39.114Z,0.80
2023-04-03T10:52:07.763Z,1.48
2023-04-03T10:54:40.428Z,0.60
2023-04-03T10:57:13.524Z,1.17
2023-04-03T11:02:31.080Z,1.63
2023-04-03T11:05:06.043Z,0.70
2023-04-03T11:07:38.737Z,0.73
2023-04-03T11:10:14.671Z,0.90
2023-04-03T11:12:45.573Z,0.80
2023-04-03T11:15:22.322Z,0.93
2023-04-03T11:17:56.162Z,1.20
2023-04-03T11:20:28.652Z,1.40
2023-04-03T11:23:00.528Z,0.97
2023-04-03T11:25:27.969Z,2.35
2023-04-03T11:27:55.096Z,0.80
2023-04-03T11:30:25.709Z,10.50
2023-04-03T11:32:52.898Z,10.40
2023-04-03T11:35:20.749Z,23.45
2023-04-03T11:37:50.216Z,25.08
2023-04-03T11:40:18.642Z,7.70
2023-04-03T11:42:50.622Z,2.13
2023-04-03T11:45:30.865Z,2.70
2023-04-03T11:48:00.927Z,3.88
2023-04-03T11:50:41.486Z,1.45
2023-04-03T11:53:09.113Z,2.55
2023-04-03T11:55:36.874Z,1.60
2023-04-03T11:58:15.254Z,0.95
2023-04-03T12:00:48.361Z,0.80
2023-04-03T12:03:27.730Z,1.10
2023-04-03T12:05:58.287Z,0.80
2023-04-03T12:08:28.572Z,1.75
2023-04-03T12:11:10.981Z,0.80
2023-04-03T12:13:44.147Z,0.77
2023-04-03T12:16:22.467Z,1.10
2023-04-03T12:19:06.454Z,0.80
2023-04-03T12:21:57.849Z,1.00
2023-04-03T12:24:27.209Z,0.90
2023-04-03T12:27:13.345Z,0.75
2023-04-03T12:29:45.533Z,0.80
2023-04-03T12:32:26.648Z,1.15
2023-04-03T12:35:10.597Z,1.30
2023-04-03T12:37:51.077Z,1.13
2023-04-03T12:40:28.706Z,1.08
2023-04-03T12:43:15.950Z,0.70
2023-04-03T12:45:46.000Z,0.95
2023-04-03T12:48:17.433Z,0.85
2023-04-03T12:50:46.537Z,0.80
2023-04-03T12:53:15.580Z,0.80
2023-04-03T12:55:42.818Z,0.90
2023-04-03T12:58:23.358Z,1.00
2023-04-03T13:01:01.022Z,1.10
2023-04-03T13:03:28.548Z,0.93
2023-04-03T13:06:01.499Z,1.30
2023-04-03T13:08:28.958Z,1.17
2023-04-03T13:11:02.317Z,1.00
2023-04-03T13:13:29.674Z,0.77
2023-04-03T13:15:57.451Z,1.00
2023-04-03T13:18:28.603Z,1.10
2023-04-03T13:20:58.932Z,1.05
2023-04-03T13:23:26.328Z,0.93
2023-04-03T13:25:53.560Z,1.50
2023-04-03T13:28:23.271Z,2.45
2023-04-03T13:30:58.369Z,0.82
2023-04-03T13:33:27.748Z,1.25
2023-04-03T13:36:09.554Z,1.10
2023-04-03T13:38:37.612Z,1.35
2023-04-03T13:41:07.319Z,1.40
2023-04-03T13:43:37.519Z,4.20
2023-04-03T13:46:24.050Z,1.85
2023-04-03T13:48:52.808Z,2.53
2023-04-03T13:51:25.061Z,2.53
2023-04-03T13:53:54.881Z,1.92
2023-04-03T13:56:28.321Z,0.85
2023-04-03T13:59:14.442Z,1.40
2023-04-03T14:01:43.802Z,0.93
2023-04-03T14:04:18.352Z,0.80
2023-04-03T14:06:45.758Z,0.98
2023-04-03T14:09:13.859Z,1.30
2023-04-03T14:11:41.538Z,0.98
2023-04-03T14:14:14.323Z,1.00
2023-04-03T14:16:42.853Z,12.52
2023-04-03T14:19:16.525Z,1.30
2023-04-03T14:21:43.759Z,1.17
2023-04-03T14:24:12.544Z,0.90
2023-04-03T14:26:39.769Z,1.65
2023-04-03T14:29:07.180Z,1.00
2023-04-03T14:31:34.428Z,0.90
2023-04-03T14:34:03.133Z,1.67
2023-04-03T14:36:31.752Z,1.40
2023-04-03T14:38:59.618Z,1.10
2023-04-03T14:41:28.196Z,1.35
2023-04-03T14:43:55.480Z,1.00
2023-04-03T14:46:28.327Z,1.17
2023-04-03T14:48:59.866Z,0.88
2023-04-03T14:51:27.316Z,1.42
2023-04-03T14:53:54.676Z,0.90
2023-04-03T14:56:24.476Z,1.20
2023-04-03T14:58:53.960Z,1.60
2023-04-03T15:01:22.870Z,1.15
2023-04-03T15:03:50.715Z,1.60
2023-04-03T15:06:18.090Z,1.30
2023-04-03T15:08:45.951Z,1.33
2023-04-03T15:11:13.224Z,1.42
2023-04-03T15:13:40.733Z,1.20
2023-04-03T15:16:13.805Z,1.08
2023-04-03T15:18:41.075Z,1.77
2023-04-03T15:21:08.526Z,1.38
2023-04-03T15:23:35.832Z,1.10
2023-04-03T15:26:03.242Z,1.88
2023-04-03T15:28:40.780Z,1.20
2023-04-03T15:31:10.720Z,1.50
2023-04-03T15:33:38.357Z,1.48
2023-04-03T15:36:07.803Z,1.63
2023-04-03T15:38:44.317Z,1.23
2023-04-03T15:41:11.469Z,1.25
2023-04-03T15:43:38.922Z,1.48
2023-04-03T15:46:06.401Z,1.40
2023-04-03T15:48:33.693Z,5.25
2023-04-03T15:51:01.640Z,1.48
2023-04-03T15:53:29.086Z,1.98
2023-04-03T15:55:56.253Z,3.78
2023-04-03T15:58:23.504Z,3.00
2023-04-03T16:00:50.726Z,1.65
2023-04-03T16:03:18.791Z,1.48
2023-04-03T16:05:46.246Z,1.33
2023-04-03T16:08:13.673Z,1.27
2023-04-03T16:10:41.618Z,1.30
2023-04-03T16:13:09.022Z,1.05
2023-04-03T16:15:36.491Z,1.50
2023-04-03T16:18:04.120Z,1.23
2023-04-03T16:20:31.674Z,1.42
2023-04-03T16:23:00.410Z,1.83
2023-04-03T16:25:27.710Z,2.10
2023-04-03T16:27:55.008Z,3.45
2023-04-03T16:30:22.237Z,2.50
2023-04-03T16:32:49.523Z,2.28
2023-04-03T16:35:16.939Z,1.30
2023-04-03T16:37:44.287Z,1.48
2023-04-03T16:40:13.098Z,2.13
2023-04-03T16:42:40.836Z,1.60
2023-04-03T16:45:08.629Z,1.38
2023-04-03T16:47:36.065Z,1.83
2023-04-03T16:50:03.315Z,1.35
2023-04-03T16:52:30.520Z,1.60
2023-04-03T16:54:59.776Z,1.50
2023-04-03T16:57:27.063Z,2.10
2023-04-03T16:59:54.919Z,5.82
2023-04-03T17:02:25.812Z,1.60
2023-04-03T17:04:53.823Z,2.47
2023-04-03T17:07:21.685Z,1.50
2023-04-03T17:09:49.396Z,1.80
2023-04-03T17:12:17.192Z,1.35
2023-04-03T17:14:44.716Z,3.60
2023-04-03T17:17:12.641Z,1.70
2023-04-03T17:19:40.401Z,1.70
2023-04-03T17:22:08.379Z,1.90
2023-04-03T17:24:35.629Z,1.88
2023-04-03T17:27:02.834Z,1.30
2023-04-03T17:29:31.345Z,2.03
2023-04-03T17:31:58.529Z,1.60
2023-04-03T17:34:26.272Z,1.42
2023-04-03T17:36:53.453Z,3.30
2023-04-03T17:39:20.861Z,1.75
2023-04-03T17:41:49.595Z,2.08
2023-04-03T17:44:16.812Z,3.35
2023-04-03T17:46:43.985Z,5.97
2023-04-03T17:49:14.871Z,2.28
2023-04-03T17:51:42.868Z,3.55
2023-04-03T17:54:10.053Z,2.67
2023-04-03T17:56:37.279Z,1.80
2023-04-03T17:59:04.594Z,1.50
2023-04-03T18:01:34.739Z,1.92
2023-04-03T18:04:03.340Z,1.30
2023-04-03T18:06:50.813Z,1.20
2023-04-03T18:09:23.731Z,1.52
2023-04-03T18:11:51.875Z,1.73
2023-04-03T18:14:21.975Z,2.20
2023-04-03T18:16:49.678Z,1.42
2023-04-03T18:19:23.308Z,1.40
2023-04-03T18:21:52.344Z,1.55
2023-04-03T18:24:20.143Z,1.00
2023-04-03T18:26:49.205Z,1.63
2023-04-03T18:29:16.548Z,1.33
2023-04-03T18:31:46.320Z,2.15
2023-04-03T18:34:13.533Z,1.30
2023-04-03T18:36:41.239Z,1.60
2023-04-03T18:39:09.022Z,1.05
2023-04-03T18:41:37.607Z,1.30
2023-04-03T18:44:07.402Z,1.00
2023-04-03T18:46:34.678Z,1.38
2023-04-03T18:49:01.956Z,1.50
2023-04-03T18:51:29.737Z,1.60
2023-04-03T18:53:57.357Z,1.42
2023-04-03T18:56:24.531Z,1.15
2023-04-03T18:58:51.730Z,1.40
2023-04-03T19:01:19.334Z,1.55
2023-04-03T19:03:46.894Z,2.15
2023-04-03T19:06:14.068Z,1.40
2023-04-03T19:08:41.676Z,1.50
2023-04-03T19:11:11.274Z,1.10
2023-04-03T19:13:46.817Z,1.30
2023-04-03T19:16:24.993Z,1.30
2023-04-03T19:18:52.363Z,1.90
2023-04-03T19:21:19.778Z,2.50
2023-04-03T19:23:48.758Z,1.50
2023-04-03T19:26:16.090Z,1.80
2023-04-03T19:28:44.067Z,1.70
2023-04-03T19:31:12.177Z,1.25
2023-04-03T19:33:41.223Z,1.23
2023-04-03T19:36:09.027Z,1.40
2023-04-03T19:38:36.474Z,1.15
2023-04-03T19:41:07.790Z,1.40
2023-04-03T19:43:35.432Z,1.50
2023-04-03T19:46:02.753Z,1.58
2023-04-03T19:48:30.353Z,1.30
2023-04-03T19:50:57.584Z,1.30
2023-04-03T19:53:29.302Z,1.73
2023-04-03T19:55:57.341Z,1.13
2023-04-03T19:58:27.776Z,1.40
2023-04-03T20:00:55.480Z,1.40
2023-04-03T20:03:24.440Z,1.20
2023-04-03T20:05:51.980Z,1.30
2023-04-03T20:08:19.642Z,1.30
2023-04-03T20:10:47.099Z,1.45
2023-04-03T20:13:14.855Z,1.30
2023-04-03T20:15:44.540Z,1.30
2023-04-03T20:18:15.764Z,1.33
2023-04-03T20:20:43.422Z,1.63
2023-04-03T20:23:11.569Z,1.15
2023-04-03T20:25:53.930Z,1.33
2023-04-03T20:28:25.636Z,1.13
2023-04-03T20:30:55.565Z,1.20
2023-04-03T20:33:23.608Z,1.10
2023-04-03T20:35:51.434Z,1.63
2023-04-03T20:38:18.585Z,1.30
2023-04-03T20:40:46.263Z,1.52
2023-04-03T20:43:13.459Z,1.70
2023-04-03T20:45:40.578Z,1.60
2023-04-03T20:48:07.871Z,1.05
2023-04-03T20:50:35.186Z,1.50
2023-04-03T20:53:03.226Z,1.88
2023-04-03T20:55:30.974Z,1.23
2023-04-03T20:58:01.469Z,1.42
2023-04-03T21:00:30.061Z,1.60
2023-04-03T21:02:58.012Z,1.35
2023-04-03T21:05:26.284Z,1.75
2023-04-03T21:08:12.529Z,1.10
2023-04-03T21:10:59.410Z,2.00
2023-04-03T21:13:46.807Z,1.42
2023-04-03T21:16:14.033Z,1.48
2023-04-03T21:18:59.897Z,1.45
2023-04-03T21:21:27.880Z,1.00
2023-04-03T21:23:56.088Z,1.17
2023-04-03T21:26:24.407Z,1.13
2023-04-03T21:28:55.108Z,1.27
2023-04-03T21:31:22.838Z,1.15
2023-04-03T21:33:50.330Z,1.40
2023-04-03T21:36:17.766Z,1.02
2023-04-03T21:38:47.728Z,1.20
2023-04-03T21:41:17.153Z,1.23
2023-04-03T21:43:47.019Z,1.35
2023-04-03T21:46:14.201Z,1.42
2023-04-03T21:48:41.694Z,1.40
2023-04-03T21:51:08.844Z,1.23
2023-04-03T21:53:36.148Z,1.58
2023-04-03T21:56:03.332Z,1.88
2023-04-03T21:58:34.575Z,1.50
2023-04-03T22:01:17.813Z,1.50
2023-04-03T22:03:45.930Z,1.50
2023-04-03T22:06:14.036Z,1.42
2023-04-03T22:08:41.465Z,1.10
2023-04-03T22:11:14.315Z,1.13
2023-04-03T22:13:41.863Z,1.30
2023-04-03T22:16:09.544Z,1.10
2023-04-03T22:18:36.953Z,0.95
2023-04-03T22:21:04.226Z,1.10
2023-04-03T22:23:31.782Z,1.17
2023-04-03T22:26:03.250Z,1.00
2023-04-03T22:28:30.838Z,1.00
2023-04-03T22:31:01.136Z,1.20
2023-04-03T22:33:28.330Z,1.08
2023-04-03T22:35:55.605Z,1.15
2023-04-03T22:38:23.097Z,1.13
2023-04-03T22:40:57.620Z,0.70
2023-04-03T22:43:25.278Z,1.10
2023-04-03T22:45:52.456Z,1.33
2023-04-03T22:48:19.603Z,1.38
2023-04-03T22:50:47.019Z,1.38
2023-04-03T22:53:16.856Z,1.40
2023-04-03T22:55:44.070Z,1.13
2023-04-03T22:58:11.669Z,1.17
2023-04-03T23:00:38.956Z,1.13
2023-04-03T23:03:06.312Z,1.13
2023-04-03T23:05:33.464Z,1.23
2023-04-03T23:08:00.743Z,1.10
2023-04-03T23:10:27.917Z,0.90
2023-04-03T23:12:55.342Z,0.95
2023-04-03T23:15:23.102Z,1.02
2023-04-03T23:17:50.579Z,1.10
2023-04-03T23:20:17.907Z,1.30
2023-04-03T23:22:45.770Z,1.10
2023-04-03T23:25:12.937Z,0.90
2023-04-03T23:27:40.146Z,1.13
2023-04-03T23:30:07.628Z,1.20
2023-04-03T23:32:34.861Z,1.13
2023-04-03T23:35:02.021Z,1.38
2023-04-03T23:37:29.142Z,1.10
2023-04-03T23:39:56.690Z,1.20
2023-04-03T23:42:23.934Z,0.70
2023-04-03T23:44:51.322Z,1.02
2023-04-03T23:47:18.519Z,1.15
2023-04-03T23:49:45.668Z,1.20
2023-04-03T23:52:12.857Z,1.00
2023-04-03T23:54:40.061Z,0.80
2023-04-03T23:57:07.416Z,0.90
2023-04-03T23:59:34.786Z,1.40
